Time;durP1;ratioP1;P1;durP2;ratioP2;P2;SDS_P1;SDS_P2;PMS_P1;PMS_P2;Temp;Humidity;BMP_temperature;BMP_pressure;BME280_temperature;BME280_humidity;BME280_pressure;Samples;Min_cycle;Max_cycle;Signal;HPM_P1;HPM_P2
2023/11/04 00:00:05;;;;;;;3.13;1.58;;;;;;;;;;5072874;28;20469;-39
2023/11/04 00:02:31;;;;;;;2.45;1.40;;;;;;;;;;5072788;28;20024;-39
2023/11/04 00:04:57;;;;;;;3.08;1.83;;;;;;;;;;5072741;28;20020;-39
2023/11/04 00:07:23;;;;;;;3.28;1.30;;;;;;;;;;5073083;28;20028;-39
2023/11/04 00:09:49;;;;;;;3.90;1.70;;;;;;;;;;5072820;28;20016;-40
2023/11/04 00:12:17;;;;;;;2.72;1.58;;;;;;;;;;5073134;28;20112;-39
2023/11/04 00:14:43;;;;;;;3.20;1.50;;;;;;;;;;5072546;28;20024;-37
2023/11/04 00:17:09;;;;;;;2.33;1.40;;;;;;;;;;5072458;28;20025;-38
2023/11/04 00:19:35;;;;;;;3.78;1.50;;;;;;;;;;5072699;28;20032;-39
2023/11/04 00:22:01;;;;;;;4.20;1.40;;;;;;;;;;5072349;28;20124;-39
2023/11/04 00:24:27;;;;;;;2.13;1.60;;;;;;;;;;5072456;28;20024;-37
2023/11/04 00:26:53;;;;;;;3.10;1.60;;;;;;;;;;5072220;28;20019;-37
2023/11/04 00:29:19;;;;;;;3.42;1.40;;;;;;;;;;5072460;28;20028;-39
2023/11/04 00:31:46;;;;;;;2.10;1.27;;;;;;;;;;5072506;28;20021;-39
2023/11/04 00:34:12;;;;;;;3.42;1.17;;;;;;;;;;5072194;28;20031;-40
2023/11/04 00:36:39;;;;;;;2.10;1.35;;;;;;;;;;5072071;28;20036;-41
2023/11/04 00:39:05;;;;;;;4.10;1.30;;;;;;;;;;5072193;28;20469;-41
2023/11/04 00:41:32;;;;;;;2.95;1.38;;;;;;;;;;5072059;28;20151;-39
2023/11/04 00:43:58;;;;;;;2.88;1.40;;;;;;;;;;5071953;28;20397;-39
2023/11/04 00:46:25;;;;;;;3.55;1.20;;;;;;;;;;5071902;28;20078;-38
2023/11/04 00:48:51;;;;;;;1.95;1.20;;;;;;;;;;5072037;28;20024;-39
2023/11/04 00:51:17;;;;;;;2.55;1.48;;;;;;;;;;5071963;28;20036;-39
2023/11/04 00:53:43;;;;;;;2.38;1.30;;;;;;;;;;5071790;28;20086;-39
2023/11/04 00:56:09;;;;;;;2.63;1.50;;;;;;;;;;5071730;28;20021;-39
2023/11/04 00:58:35;;;;;;;3.88;1.30;;;;;;;;;;5071828;28;20488;-40
2023/11/04 01:01:01;;;;;;;2.35;1.40;;;;;;;;;;5070995;28;20452;-40
2023/11/04 01:03:28;;;;;;;1.85;1.20;;;;;;;;;;5071700;28;20028;-40
2023/11/04 01:05:54;;;;;;;1.83;1.20;;;;;;;;;;5071698;28;20537;-38
2023/11/04 01:08:20;;;;;;;2.63;1.20;;;;;;;;;;5071604;28;20059;-39
2023/11/04 01:10:47;;;;;;;2.70;1.33;;;;;;;;;;5071494;28;20020;-39
2023/11/04 01:13:13;;;;;;;2.58;1.30;;;;;;;;;;5071487;28;20441;-38
2023/11/04 01:15:39;;;;;;;2.63;1.40;;;;;;;;;;5071455;28;20021;-39
2023/11/04 01:18:05;;;;;;;1.95;1.10;;;;;;;;;;5071420;28;20020;-39
2023/11/04 01:20:31;;;;;;;4.85;1.15;;;;;;;;;;5071429;28;20478;-39
2023/11/04 01:22:57;;;;;;;2.13;1.15;;;;;;;;;;5071835;28;20103;-39
2023/11/04 01:25:23;;;;;;;1.83;1.00;;;;;;;;;;5071206;28;20025;-37
2023/11/04 01:27:49;;;;;;;2.55;1.23;;;;;;;;;;5071573;28;20099;-39
2023/11/04 01:30:15;;;;;;;4.13;1.45;;;;;;;;;;5071450;28;20020;-40
2023/11/04 01:32:41;;;;;;;2.10;1.20;;;;;;;;;;5071302;28;20029;-39
2023/11/04 01:35:08;;;;;;;3.30;1.27;;;;;;;;;;5071315;28;20021;-39
2023/11/04 01:37:34;;;;;;;1.27;0.98;;;;;;;;;;5071315;28;20105;-39
2023/11/04 01:40:06;;;;;;;2.38;0.98;;;;;;;;;;5071220;28;20028;-40
2023/11/04 01:42:33;;;;;;;2.65;1.20;;;;;;;;;;5071157;28;20036;-39
2023/11/04 01:44:59;;;;;;;1.60;1.08;;;;;;;;;;5071399;28;20493;-40
2023/11/04 01:47:25;;;;;;;1.80;1.10;;;;;;;;;;5071162;28;20237;-39
2023/11/04 01:49:51;;;;;;;1.83;1.15;;;;;;;;;;5071239;28;20095;-38
2023/11/04 01:52:18;;;;;;;1.45;1.00;;;;;;;;;;5095731;22;20397;-44
2023/11/04 01:54:45;;;;;;;2.97;1.35;;;;;;;;;;5089931;28;20119;-41
2023/11/04 01:57:11;;;;;;;1.67;1.08;;;;;;;;;;5090696;28;20138;-42
2023/11/04 01:59:37;;;;;;;2.53;1.30;;;;;;;;;;5092223;28;20024;-39
2023/11/04 02:02:06;;;;;;;1.65;1.00;;;;;;;;;;5091077;28;20046;-41
2023/11/04 02:04:32;;;;;;;2.10;1.08;;;;;;;;;;5091954;28;20044;-39
2023/11/04 02:06:58;;;;;;;2.00;1.00;;;;;;;;;;5092158;28;20068;-41
2023/11/04 02:09:24;;;;;;;1.63;0.90;;;;;;;;;;5091456;28;20020;-41
2023/11/04 02:11:53;;;;;;;2.90;1.27;;;;;;;;;;5093628;28;20481;-42
2023/11/04 02:14:19;;;;;;;2.13;1.10;;;;;;;;;;5095112;28;20029;-44
2023/11/04 02:16:46;;;;;;;2.78;1.10;;;;;;;;;;5094962;28;20024;-42
2023/11/04 02:19:12;;;;;;;1.83;0.85;;;;;;;;;;5095803;28;20477;-42
2023/11/04 02:21:39;;;;;;;2.45;0.93;;;;;;;;;;5097658;28;20125;-41
2023/11/04 02:24:05;;;;;;;1.40;1.02;;;;;;;;;;5095911;28;20047;-41
2023/11/04 02:26:32;;;;;;;1.90;1.17;;;;;;;;;;5096963;28;20544;-40
2023/11/04 02:28:58;;;;;;;1.83;1.10;;;;;;;;;;5097194;28;20048;-42
2023/11/04 02:31:24;;;;;;;2.58;1.20;;;;;;;;;;5094992;28;20020;-42
2023/11/04 02:33:50;;;;;;;1.77;1.10;;;;;;;;;;5094814;28;20020;-41
2023/11/04 02:36:16;;;;;;;1.80;1.00;;;;;;;;;;5094752;28;20453;-44
2023/11/04 02:38:42;;;;;;;3.83;1.10;;;;;;;;;;5095344;28;20023;-41
2023/11/04 02:41:08;;;;;;;1.60;1.13;;;;;;;;;;5097009;28;20025;-44
2023/11/04 02:43:34;;;;;;;2.17;1.10;;;;;;;;;;5094533;28;20157;-41
2023/11/04 02:46:01;;;;;;;2.47;1.10;;;;;;;;;;5094705;28;20024;-42
2023/11/04 02:48:27;;;;;;;1.73;1.10;;;;;;;;;;5097185;28;20021;-39
2023/11/04 02:50:54;;;;;;;2.53;0.98;;;;;;;;;;5095606;28;20046;-42
2023/11/04 02:53:20;;;;;;;2.58;1.27;;;;;;;;;;5094549;28;20028;-41
2023/11/04 02:55:46;;;;;;;1.60;1.00;;;;;;;;;;5094251;28;20024;-41
2023/11/04 02:58:12;;;;;;;1.95;1.00;;;;;;;;;;5094893;28;20028;-38
2023/11/04 03:00:39;;;;;;;1.67;1.00;;;;;;;;;;5094652;28;20067;-41
2023/11/04 03:03:05;;;;;;;2.17;0.93;;;;;;;;;;5095655;28;20027;-42
2023/11/04 03:05:31;;;;;;;2.97;1.02;;;;;;;;;;5095274;28;20016;-41
2023/11/04 03:07:57;;;;;;;1.77;0.95;;;;;;;;;;5094072;28;20027;-42
2023/11/04 03:10:23;;;;;;;1.25;0.98;;;;;;;;;;5094718;28;20028;-42
2023/11/04 03:12:49;;;;;;;1.45;0.90;;;;;;;;;;5093935;28;20031;-43
2023/11/04 03:15:16;;;;;;;2.38;0.90;;;;;;;;;;5093885;28;20066;-42
2023/11/04 03:17:42;;;;;;;1.70;0.90;;;;;;;;;;5094612;28;20027;-42
2023/11/04 03:20:09;;;;;;;2.55;1.10;;;;;;;;;;5094189;28;20024;-39
2023/11/04 03:22:36;;;;;;;2.63;1.00;;;;;;;;;;5093214;28;20055;-42
2023/11/04 03:25:04;;;;;;;3.55;1.00;;;;;;;;;;5094658;28;20023;-41
2023/11/04 03:27:30;;;;;;;1.65;0.98;;;;;;;;;;5094175;28;20049;-41
2023/11/04 03:29:57;;;;;;;1.77;0.90;;;;;;;;;;5094178;28;20389;-41
2023/11/04 03:32:23;;;;;;;1.75;0.90;;;;;;;;;;5093927;28;20024;-40
2023/11/04 03:34:49;;;;;;;1.33;0.90;;;;;;;;;;5094041;28;20039;-40
2023/11/04 03:37:15;;;;;;;1.48;0.85;;;;;;;;;;5094610;28;20035;-42
2023/11/04 03:39:41;;;;;;;1.67;0.88;;;;;;;;;;5094318;28;20078;-42
2023/11/04 03:42:07;;;;;;;2.42;1.00;;;;;;;;;;5094069;28;20047;-38
2023/11/04 03:44:33;;;;;;;1.73;0.90;;;;;;;;;;5095029;28;20043;-40
2023/11/04 03:46:59;;;;;;;1.50;0.85;;;;;;;;;;5094699;28;20020;-41
2023/11/04 03:49:25;;;;;;;1.23;0.88;;;;;;;;;;5094918;28;20020;-42
2023/11/04 03:51:52;;;;;;;1.67;0.90;;;;;;;;;;5094455;28;20024;-42
2023/11/04 03:54:18;;;;;;;2.47;1.00;;;;;;;;;;5094795;28;20115;-40
2023/11/04 03:56:44;;;;;;;1.33;0.80;;;;;;;;;;5094088;28;20031;-43
2023/11/04 03:59:10;;;;;;;2.35;0.95;;;;;;;;;;5093642;28;20162;-42
2023/11/04 04:01:42;;;;;;;1.55;1.08;;;;;;;;;;5095080;28;20024;-41
2023/11/04 04:04:08;;;;;;;1.35;0.82;;;;;;;;;;5093509;28;20524;-41
2023/11/04 04:06:34;;;;;;;1.00;0.77;;;;;;;;;;5093817;28;20020;-39
2023/11/04 04:09:00;;;;;;;1.02;0.73;;;;;;;;;;5094017;28;20393;-41
2023/11/04 04:11:26;;;;;;;1.40;0.70;;;;;;;;;;5094521;28;20099;-41
2023/11/04 04:13:53;;;;;;;2.28;1.00;;;;;;;;;;5093474;28;20034;-41
2023/11/04 04:16:21;;;;;;;1.60;0.80;;;;;;;;;;5093017;28;20042;-41
2023/11/04 04:18:47;;;;;;;1.25;0.70;;;;;;;;;;5092820;28;20447;-41
2023/11/04 04:21:16;;;;;;;0.90;0.70;;;;;;;;;;5092832;28;20482;-41
2023/11/04 04:23:43;;;;;;;1.13;0.90;;;;;;;;;;5094159;28;20020;-40
2023/11/04 04:26:09;;;;;;;3.35;0.90;;;;;;;;;;5092618;28;20154;-41
2023/11/04 04:28:38;;;;;;;2.05;0.60;;;;;;;;;;5094292;28;20077;-40
2023/11/04 04:31:04;;;;;;;2.58;0.80;;;;;;;;;;5092770;28;20028;-42
2023/11/04 04:33:30;;;;;;;1.10;0.70;;;;;;;;;;5093709;28;20024;-42
2023/11/04 04:35:56;;;;;;;1.13;0.80;;;;;;;;;;5092275;28;20031;-40
2023/11/04 04:38:24;;;;;;;1.17;0.82;;;;;;;;;;5092276;28;20380;-42
2023/11/04 04:40:50;;;;;;;2.38;0.75;;;;;;;;;;5092319;28;20055;-41
2023/11/04 04:43:16;;;;;;;2.95;1.10;;;;;;;;;;5091962;28;20027;-41
2023/11/04 04:45:42;;;;;;;1.38;0.85;;;;;;;;;;5092279;28;20016;-41
2023/11/04 04:48:09;;;;;;;1.15;0.80;;;;;;;;;;5093730;28;20021;-42
2023/11/04 04:50:35;;;;;;;1.75;1.00;;;;;;;;;;5093445;28;20016;-41
2023/11/04 04:53:02;;;;;;;1.58;0.88;;;;;;;;;;5093408;28;20043;-38
2023/11/04 04:55:28;;;;;;;1.33;0.75;;;;;;;;;;5092644;28;20031;-41
2023/11/04 04:57:55;;;;;;;1.30;0.70;;;;;;;;;;5092738;28;20040;-40
2023/11/04 05:00:22;;;;;;;1.17;0.90;;;;;;;;;;5094545;28;20020;-42
2023/11/04 05:02:48;;;;;;;1.75;0.93;;;;;;;;;;5094512;28;20054;-41
2023/11/04 05:05:15;;;;;;;1.65;0.90;;;;;;;;;;5094610;28;20500;-43
2023/11/04 05:07:42;;;;;;;1.45;1.00;;;;;;;;;;5094239;28;20028;-40
2023/11/04 05:10:09;;;;;;;1.58;1.00;;;;;;;;;;5091962;28;20069;-38
2023/11/04 05:12:36;;;;;;;2.40;0.88;;;;;;;;;;5091660;28;20051;-41
2023/11/04 05:15:02;;;;;;;1.10;0.90;;;;;;;;;;5091719;28;20024;-41
2023/11/04 05:17:28;;;;;;;3.58;0.98;;;;;;;;;;5091851;28;20496;-42
2023/11/04 05:19:55;;;;;;;1.88;1.10;;;;;;;;;;5091764;28;20035;-38
2023/11/04 05:22:23;;;;;;;1.20;0.80;;;;;;;;;;5091469;28;20107;-40
2023/11/04 05:24:49;;;;;;;0.98;0.73;;;;;;;;;;5091527;28;20020;-41
2023/11/04 05:27:16;;;;;;;1.75;0.90;;;;;;;;;;5091455;28;20393;-42
2023/11/04 05:29:42;;;;;;;2.33;0.82;;;;;;;;;;5092419;28;20062;-39
2023/11/04 05:32:09;;;;;;;1.65;0.90;;;;;;;;;;5092479;28;20020;-41
2023/11/04 05:34:35;;;;;;;1.00;0.90;;;;;;;;;;5093397;28;20025;-41
2023/11/04 05:37:01;;;;;;;2.15;0.85;;;;;;;;;;5092923;28;20012;-41
2023/11/04 05:39:27;;;;;;;0.77;0.60;;;;;;;;;;5092913;28;20150;-42
2023/11/04 05:41:53;;;;;;;1.52;1.00;;;;;;;;;;5091921;28;20035;-41
2023/11/04 05:44:19;;;;;;;1.73;0.70;;;;;;;;;;5091110;28;20020;-42
2023/11/04 05:46:48;;;;;;;2.83;0.80;;;;;;;;;;5093228;28;20098;-42
2023/11/04 05:49:14;;;;;;;1.40;0.57;;;;;;;;;;5092984;28;20112;-41
2023/11/04 05:51:40;;;;;;;1.38;0.73;;;;;;;;;;5092689;28;20058;-38
2023/11/04 05:54:06;;;;;;;2.33;0.63;;;;;;;;;;5093621;28;20070;-43
2023/11/04 05:56:32;;;;;;;1.30;0.70;;;;;;;;;;5092729;28;20020;-41
2023/11/04 05:58:58;;;;;;;1.35;0.70;;;;;;;;;;5091482;28;20035;-42
2023/11/04 06:01:24;;;;;;;1.25;0.70;;;;;;;;;;5091256;28;20031;-40
2023/11/04 06:03:54;;;;;;;3.80;0.80;;;;;;;;;;5091694;28;20028;-41
2023/11/04 06:06:20;;;;;;;0.93;0.57;;;;;;;;;;5092953;28;20024;-38
2023/11/04 06:08:47;;;;;;;1.17;0.55;;;;;;;;;;5091553;28;20020;-41
2023/11/04 06:11:13;;;;;;;1.75;0.68;;;;;;;;;;5091494;28;20517;-41
2023/11/04 06:13:39;;;;;;;1.70;0.90;;;;;;;;;;5091706;28;20028;-38
2023/11/04 06:16:06;;;;;;;1.73;0.60;;;;;;;;;;5091152;28;20024;-42
2023/11/04 06:18:33;;;;;;;2.50;0.90;;;;;;;;;;5092454;28;20407;-40
2023/11/04 06:20:59;;;;;;;1.05;0.63;;;;;;;;;;5091165;28;20020;-41
2023/11/04 06:23:25;;;;;;;1.13;0.70;;;;;;;;;;5091373;28;20016;-41
2023/11/04 06:25:51;;;;;;;1.08;0.70;;;;;;;;;;5091424;28;20019;-40
2023/11/04 06:28:17;;;;;;;1.45;0.70;;;;;;;;;;5091543;28;20021;-41
2023/11/04 06:30:43;;;;;;;1.15;0.70;;;;;;;;;;5092171;28;20496;-40
2023/11/04 06:33:10;;;;;;;1.20;0.50;;;;;;;;;;5091356;28;20461;-38
2023/11/04 06:35:36;;;;;;;1.13;0.68;;;;;;;;;;5091752;28;20108;-44
2023/11/04 06:38:02;;;;;;;1.15;0.70;;;;;;;;;;5090679;28;20031;-40
2023/11/04 06:40:28;;;;;;;0.90;0.60;;;;;;;;;;5092594;28;20028;-41
2023/11/04 06:42:54;;;;;;;0.82;0.60;;;;;;;;;;5091348;28;20028;-40
2023/11/04 06:45:20;;;;;;;1.33;0.60;;;;;;;;;;5090784;28;20016;-38
2023/11/04 06:47:47;;;;;;;0.93;0.50;;;;;;;;;;5091429;28;20035;-38
2023/11/04 06:50:13;;;;;;;1.60;0.70;;;;;;;;;;5090768;28;20012;-40
2023/11/04 06:52:39;;;;;;;1.33;0.70;;;;;;;;;;5090365;28;20032;-41
2023/11/04 06:55:05;;;;;;;0.82;0.60;;;;;;;;;;5090610;28;20063;-42
2023/11/04 06:57:33;;;;;;;0.85;0.65;;;;;;;;;;5091472;28;20024;-42
2023/11/04 06:59:59;;;;;;;1.17;0.60;;;;;;;;;;5095645;28;20028;-39
2023/11/04 07:02:25;;;;;;;1.70;0.90;;;;;;;;;;5094420;28;20028;-42
2023/11/04 07:04:51;;;;;;;0.80;0.50;;;;;;;;;;5094535;28;20020;-46
2023/11/04 07:07:17;;;;;;;0.80;0.57;;;;;;;;;;5094773;28;20481;-41
2023/11/04 07:09:43;;;;;;;0.82;0.50;;;;;;;;;;5094596;28;20034;-42
2023/11/04 07:12:10;;;;;;;0.68;0.50;;;;;;;;;;5096183;28;20102;-42
2023/11/04 07:14:36;;;;;;;0.70;0.43;;;;;;;;;;5094168;28;20384;-41
2023/11/04 07:17:02;;;;;;;0.73;0.40;;;;;;;;;;5093844;28;20433;-39
2023/11/04 07:19:28;;;;;;;0.85;0.50;;;;;;;;;;5095808;28;20477;-41
2023/11/04 07:21:54;;;;;;;0.75;0.50;;;;;;;;;;5095583;28;20397;-42
2023/11/04 07:24:20;;;;;;;1.30;0.80;;;;;;;;;;5095735;28;20481;-42
2023/11/04 07:26:46;;;;;;;0.73;0.50;;;;;;;;;;5094041;28;20020;-41
2023/11/04 07:29:12;;;;;;;1.15;0.52;;;;;;;;;;5095099;28;20021;-41
2023/11/04 07:31:38;;;;;;;2.15;0.57;;;;;;;;;;5095815;28;20020;-41
2023/11/04 07:34:05;;;;;;;0.90;0.57;;;;;;;;;;5095300;28;20083;-41
2023/11/04 07:36:31;;;;;;;1.25;0.40;;;;;;;;;;5093588;28;20035;-40
2023/11/04 07:38:57;;;;;;;1.42;0.60;;;;;;;;;;5094034;28;20039;-38
2023/11/04 07:41:23;;;;;;;1.23;0.70;;;;;;;;;;5095205;28;20045;-40
2023/11/04 07:43:49;;;;;;;0.77;0.50;;;;;;;;;;5094240;28;20111;-41
2023/11/04 07:46:15;;;;;;;1.33;0.60;;;;;;;;;;5094606;28;20028;-41
2023/11/04 07:48:41;;;;;;;1.50;0.50;;;;;;;;;;5093161;28;20018;-41
2023/11/04 07:51:11;;;;;;;0.85;0.40;;;;;;;;;;5093262;28;20016;-42
2023/11/04 07:53:37;;;;;;;0.65;0.50;;;;;;;;;;5094154;28;20381;-41
2023/11/04 07:56:03;;;;;;;1.02;0.50;;;;;;;;;;5094441;28;20035;-39
2023/11/04 07:58:30;;;;;;;1.15;0.70;;;;;;;;;;5094111;28;20028;-40
2023/11/04 08:00:56;;;;;;;1.30;0.40;;;;;;;;;;5093196;28;20028;-41
2023/11/04 08:03:23;;;;;;;0.85;0.50;;;;;;;;;;5093010;28;20024;-41
2023/11/04 08:05:49;;;;;;;0.70;0.43;;;;;;;;;;5092938;28;20020;-41
2023/11/04 08:08:15;;;;;;;0.63;0.43;;;;;;;;;;5093591;28;20027;-42
2023/11/04 08:10:41;;;;;;;0.80;0.40;;;;;;;;;;5094113;28;20024;-40
2023/11/04 08:13:08;;;;;;;0.30;0.20;;;;;;;;;;5093117;28;20089;-42
2023/11/04 08:15:36;;;;;;;0.40;0.30;;;;;;;;;;5092930;28;20039;-43
2023/11/04 08:18:02;;;;;;;0.35;0.35;;;;;;;;;;5094727;28;20035;-40
2023/11/04 08:20:28;;;;;;;0.60;0.57;;;;;;;;;;5092775;28;20024;-45
2023/11/04 08:22:54;;;;;;;1.20;0.60;;;;;;;;;;5094226;28;20114;-39
2023/11/04 08:25:20;;;;;;;0.63;0.40;;;;;;;;;;5093239;28;20054;-41
2023/11/04 08:27:47;;;;;;;0.85;0.40;;;;;;;;;;5092502;28;20400;-42
2023/11/04 08:30:14;;;;;;;0.82;0.52;;;;;;;;;;5093256;28;20027;-41
2023/11/04 08:32:40;;;;;;;0.98;0.60;;;;;;;;;;5092611;28;20024;-42
2023/11/04 08:35:07;;;;;;;0.70;0.40;;;;;;;;;;5092413;28;20400;-45
2023/11/04 08:37:34;;;;;;;0.73;0.50;;;;;;;;;;5092921;28;20036;-42
2023/11/04 08:40:00;;;;;;;0.40;0.35;;;;;;;;;;5092889;28;20030;-46
2023/11/04 08:42:27;;;;;;;0.82;0.47;;;;;;;;;;5092847;28;20485;-42
2023/11/04 08:44:53;;;;;;;0.73;0.40;;;;;;;;;;5092847;28;20047;-41
2023/11/04 08:47:19;;;;;;;1.30;0.60;;;;;;;;;;5092474;28;20103;-39
2023/11/04 08:49:45;;;;;;;0.90;0.60;;;;;;;;;;5092406;28;20032;-38
2023/11/04 08:52:12;;;;;;;1.40;0.52;;;;;;;;;;5092080;28;20192;-42
2023/11/04 08:54:40;;;;;;;1.08;0.60;;;;;;;;;;5091995;28;20570;-40
2023/11/04 08:57:06;;;;;;;1.23;0.70;;;;;;;;;;5092397;28;20051;-41
2023/11/04 08:59:33;;;;;;;2.05;0.50;;;;;;;;;;5092153;28;20032;-41
2023/11/04 09:01:59;;;;;;;1.23;0.50;;;;;;;;;;5092486;28;20028;-42
2023/11/04 09:04:25;;;;;;;0.52;0.40;;;;;;;;;;5091907;28;20591;-44
2023/11/04 09:06:51;;;;;;;0.90;0.45;;;;;;;;;;5091967;28;20016;-40
2023/11/04 09:09:19;;;;;;;0.80;0.50;;;;;;;;;;5092001;28;20023;-40
2023/11/04 09:11:45;;;;;;;0.60;0.43;;;;;;;;;;5091741;28;20500;-41
2023/11/04 09:14:11;;;;;;;1.38;0.60;;;;;;;;;;5091571;28;20032;-41
2023/11/04 09:16:37;;;;;;;1.20;0.70;;;;;;;;;;5091555;28;20028;-39
2023/11/04 09:19:03;;;;;;;2.25;1.13;;;;;;;;;;5091889;28;20481;-41
2023/11/04 09:21:29;;;;;;;2.92;0.70;;;;;;;;;;5093389;28;20028;-41
2023/11/04 09:23:56;;;;;;;2.60;0.80;;;;;;;;;;5093258;28;20043;-40
2023/11/04 09:26:22;;;;;;;2.67;0.60;;;;;;;;;;5091766;28;20091;-41
2023/11/04 09:28:48;;;;;;;2.13;0.50;;;;;;;;;;5092251;28;20043;-40
2023/11/04 09:31:14;;;;;;;1.40;0.70;;;;;;;;;;5091606;28;20103;-42
2023/11/04 09:33:40;;;;;;;1.70;0.70;;;;;;;;;;5092694;28;20553;-38
2023/11/04 09:36:07;;;;;;;1.15;0.68;;;;;;;;;;5091833;28;20082;-40
2023/11/04 09:38:34;;;;;;;1.92;0.73;;;;;;;;;;5092193;28;20107;-40
2023/11/04 09:41:00;;;;;;;0.93;0.60;;;;;;;;;;5093040;28;20506;-40
2023/11/04 09:43:26;;;;;;;1.52;0.50;;;;;;;;;;5091973;28;20058;-40
2023/11/04 09:45:52;;;;;;;2.60;0.75;;;;;;;;;;5092353;28;20469;-41
2023/11/04 09:48:18;;;;;;;1.35;0.70;;;;;;;;;;5091824;28;20020;-41
2023/11/04 09:50:45;;;;;;;3.42;0.80;;;;;;;;;;5092337;28;20054;-40
2023/11/04 09:53:15;;;;;;;0.88;0.55;;;;;;;;;;5091602;28;20036;-38
2023/11/04 09:55:42;;;;;;;1.25;0.60;;;;;;;;;;5092018;28;20464;-41
2023/11/04 09:58:08;;;;;;;0.80;0.57;;;;;;;;;;5092107;28;20024;-40
2023/11/04 10:00:36;;;;;;;3.53;0.70;;;;;;;;;;5091134;28;20031;-37
2023/11/04 10:03:02;;;;;;;1.60;0.52;;;;;;;;;;5091704;28;20120;-39
2023/11/04 10:05:28;;;;;;;0.80;0.55;;;;;;;;;;5092114;28;20381;-40
2023/11/04 10:07:55;;;;;;;0.93;0.57;;;;;;;;;;5092533;28;20468;-37
2023/11/04 10:10:21;;;;;;;1.05;0.60;;;;;;;;;;5092680;28;20024;-41
2023/11/04 10:12:47;;;;;;;0.80;0.60;;;;;;;;;;5093127;28;20774;-38
2023/11/04 10:15:13;;;;;;;0.68;0.40;;;;;;;;;;5092868;28;20500;-42
2023/11/04 10:17:39;;;;;;;1.10;0.50;;;;;;;;;;5092638;28;20546;-40
2023/11/04 10:20:11;;;;;;;1.27;0.77;;;;;;;;;;5093250;28;20047;-37
2023/11/04 10:22:38;;;;;;;1.33;0.70;;;;;;;;;;5091733;28;20030;-41
2023/11/04 10:25:07;;;;;;;1.10;0.52;;;;;;;;;;5091511;28;20484;-37
2023/11/04 10:27:33;;;;;;;1.38;0.63;;;;;;;;;;5091991;28;20028;-41
2023/11/04 10:30:00;;;;;;;0.60;0.30;;;;;;;;;;5091240;28;20020;-44
2023/11/04 10:32:32;;;;;;;0.80;0.60;;;;;;;;;;5092394;28;20022;-40
2023/11/04 10:34:58;;;;;;;1.20;0.50;;;;;;;;;;5097366;28;20445;-42
2023/11/04 10:37:26;;;;;;;0.95;0.55;;;;;;;;;;5095444;28;20417;-40
2023/11/04 10:39:55;;;;;;;1.00;0.40;;;;;;;;;;5094751;28;20078;-44
2023/11/04 10:42:24;;;;;;;0.90;0.50;;;;;;;;;;5094906;28;20016;-40
2023/11/04 10:44:54;;;;;;;1.33;0.70;;;;;;;;;;5094769;28;20035;-37
2023/11/04 10:47:24;;;;;;;1.30;0.55;;;;;;;;;;5096141;28;20382;-38
2023/11/04 10:50:15;;;;;;;0.70;0.50;;;;;;;;;;5094501;28;20030;-38
2023/11/04 10:52:50;;;;;;;0.63;0.38;;;;;;;;;;5094727;28;20028;-40
2023/11/04 10:55:18;;;;;;;0.90;0.47;;;;;;;;;;5094560;28;20031;-40
2023/11/04 10:57:48;;;;;;;1.23;0.50;;;;;;;;;;5094404;28;20024;-38
2023/11/04 11:00:19;;;;;;;0.55;0.40;;;;;;;;;;5094743;28;20032;-41
2023/11/04 11:02:45;;;;;;;0.73;0.52;;;;;;;;;;5096879;28;20054;-41
2023/11/04 11:05:12;;;;;;;0.77;0.65;;;;;;;;;;5095411;28;20092;-40
2023/11/04 11:07:45;;;;;;;0.80;0.40;;;;;;;;;;5094475;28;20384;-40
2023/11/04 11:10:12;;;;;;;0.75;0.47;;;;;;;;;;5096322;28;20035;-40
2023/11/04 11:12:43;;;;;;;0.50;0.30;;;;;;;;;;5094800;28;20027;-40
2023/11/04 11:15:09;;;;;;;0.70;0.40;;;;;;;;;;5095195;28;20017;-40
2023/11/04 11:17:35;;;;;;;0.70;0.40;;;;;;;;;;5095845;28;20479;-41
2023/11/04 11:20:01;;;;;;;2.33;0.45;;;;;;;;;;5095415;28;20388;-38
2023/11/04 11:22:29;;;;;;;0.88;0.40;;;;;;;;;;5094117;28;20520;-42
2023/11/04 11:24:57;;;;;;;1.02;0.40;;;;;;;;;;5093975;28;20024;-41
2023/11/04 11:27:24;;;;;;;0.93;0.40;;;;;;;;;;5094566;28;20020;-40
2023/11/04 11:29:50;;;;;;;0.90;0.50;;;;;;;;;;5095561;28;20389;-40
2023/11/04 11:32:17;;;;;;;0.57;0.45;;;;;;;;;;5095380;28;20059;-38
2023/11/04 11:34:50;;;;;;;1.02;0.50;;;;;;;;;;5094377;28;20036;-38
2023/11/04 11:37:20;;;;;;;0.93;0.60;;;;;;;;;;5094759;28;20020;-41
2023/11/04 11:39:47;;;;;;;0.80;0.43;;;;;;;;;;5094160;28;20064;-39
2023/11/04 11:42:13;;;;;;;1.95;0.50;;;;;;;;;;5094746;28;20069;-37
2023/11/04 11:44:41;;;;;;;0.82;0.40;;;;;;;;;;5093417;28;20366;-42
2023/11/04 11:47:07;;;;;;;0.93;0.52;;;;;;;;;;5095111;28;20032;-39
2023/11/04 11:49:34;;;;;;;2.20;0.70;;;;;;;;;;5093676;28;20083;-42
2023/11/04 11:52:00;;;;;;;0.50;0.47;;;;;;;;;;5094427;28;20024;-40
2023/11/04 11:54:28;;;;;;;0.60;0.52;;;;;;;;;;5092775;28;20471;-37
2023/11/04 11:56:54;;;;;;;0.80;0.50;;;;;;;;;;5093068;28;20457;-41
2023/11/04 11:59:20;;;;;;;0.70;0.50;;;;;;;;;;5093238;28;20024;-38
2023/11/04 12:01:47;;;;;;;0.70;0.45;;;;;;;;;;5093170;28;20078;-41
2023/11/04 12:04:13;;;;;;;0.95;0.45;;;;;;;;;;5094530;28;20436;-41
2023/11/04 12:06:40;;;;;;;1.00;0.43;;;;;;;;;;5093173;28;20401;-40
2023/11/04 12:09:10;;;;;;;0.73;0.40;;;;;;;;;;5094130;28;20020;-40
2023/11/04 12:11:37;;;;;;;0.45;0.40;;;;;;;;;;5092972;28;20471;-40
2023/11/04 12:14:03;;;;;;;0.65;0.40;;;;;;;;;;5094222;28;20267;-39
2023/11/04 12:16:33;;;;;;;0.40;0.30;;;;;;;;;;5093733;28;20028;-41
2023/11/04 12:19:00;;;;;;;1.23;0.40;;;;;;;;;;5094062;28;20027;-39
2023/11/04 12:21:26;;;;;;;1.92;0.43;;;;;;;;;;5094023;28;20028;-38
2023/11/04 12:23:52;;;;;;;0.90;0.50;;;;;;;;;;5092641;28;20060;-40
2023/11/04 12:26:18;;;;;;;0.52;0.40;;;;;;;;;;5091267;28;20464;-40
2023/11/04 12:28:45;;;;;;;0.60;0.50;;;;;;;;;;5092614;28;20036;-40
2023/11/04 12:31:14;;;;;;;0.57;0.35;;;;;;;;;;5094006;28;20020;-40
2023/11/04 12:33:45;;;;;;;0.68;0.50;;;;;;;;;;5093697;28;20031;-40
2023/11/04 12:36:11;;;;;;;1.23;0.50;;;;;;;;;;5092315;28;20035;-42
2023/11/04 12:38:39;;;;;;;0.50;0.40;;;;;;;;;;5093102;28;20042;-40
2023/11/04 12:41:05;;;;;;;0.75;0.60;;;;;;;;;;5093378;28;20020;-42
2023/11/04 12:43:32;;;;;;;0.68;0.45;;;;;;;;;;5094070;28;20401;-40
2023/11/04 12:45:58;;;;;;;0.50;0.40;;;;;;;;;;5093227;28;20491;-41
2023/11/04 12:48:24;;;;;;;0.60;0.40;;;;;;;;;;5092505;28;20056;-38
2023/11/04 12:50:51;;;;;;;0.98;0.50;;;;;;;;;;5093053;28;20102;-42
2023/11/04 12:53:18;;;;;;;0.40;0.38;;;;;;;;;;5093168;28;20043;-40
2023/11/04 12:55:44;;;;;;;0.52;0.40;;;;;;;;;;5092453;28;20030;-40
2023/11/04 12:58:12;;;;;;;2.05;0.50;;;;;;;;;;5094781;28;20032;-41
2023/11/04 13:00:38;;;;;;;3.08;0.60;;;;;;;;;;5092923;28;20087;-37
2023/11/04 13:03:04;;;;;;;0.43;0.28;;;;;;;;;;5091675;28;20050;-40
2023/11/04 13:05:30;;;;;;;0.90;0.50;;;;;;;;;;5091745;28;20024;-39
2023/11/04 13:07:57;;;;;;;1.05;0.43;;;;;;;;;;5091828;28;20031;-40
2023/11/04 13:10:23;;;;;;;0.80;0.70;;;;;;;;;;5091874;28;20023;-37
2023/11/04 13:12:49;;;;;;;0.60;0.40;;;;;;;;;;5091980;28;20465;-38
2023/11/04 13:15:16;;;;;;;0.80;0.40;;;;;;;;;;5093115;28;20095;-40
2023/11/04 13:17:42;;;;;;;0.50;0.40;;;;;;;;;;5092008;28;20089;-42
2023/11/04 13:20:09;;;;;;;0.93;0.50;;;;;;;;;;5091641;28;20031;-39
2023/11/04 13:22:35;;;;;;;0.52;0.38;;;;;;;;;;5093139;28;20040;-41
2023/11/04 13:25:02;;;;;;;0.60;0.40;;;;;;;;;;5092589;28;20102;-41
2023/11/04 13:27:29;;;;;;;0.68;0.45;;;;;;;;;;5092975;28;20432;-40
2023/11/04 13:29:55;;;;;;;0.60;0.40;;;;;;;;;;5091805;28;20024;-39
2023/11/04 13:32:25;;;;;;;1.10;0.40;;;;;;;;;;5093561;28;20507;-40
2023/11/04 13:34:51;;;;;;;1.10;0.60;;;;;;;;;;5092095;28;20020;-37
2023/11/04 13:37:17;;;;;;;1.48;0.63;;;;;;;;;;5091641;28;20024;-39
2023/11/04 13:39:43;;;;;;;1.00;0.60;;;;;;;;;;5091512;28;20111;-41
2023/11/04 13:42:09;;;;;;;1.10;0.55;;;;;;;;;;5091516;28;20405;-41
2023/11/04 13:44:35;;;;;;;1.50;0.50;;;;;;;;;;5092651;28;20145;-41
2023/11/04 13:47:02;;;;;;;1.40;0.60;;;;;;;;;;5091174;28;20020;-40
2023/11/04 13:49:28;;;;;;;0.90;0.60;;;;;;;;;;5091524;28;20024;-41
2023/11/04 13:51:54;;;;;;;0.70;0.47;;;;;;;;;;5091292;28;20077;-41
2023/11/04 13:54:20;;;;;;;1.35;0.50;;;;;;;;;;5091917;28;20028;-41
2023/11/04 13:56:46;;;;;;;0.65;0.45;;;;;;;;;;5091168;28;20020;-41
2023/11/04 13:59:12;;;;;;;0.70;0.50;;;;;;;;;;5091247;28;20020;-44
2023/11/04 14:01:38;;;;;;;1.55;0.55;;;;;;;;;;5091217;28;20426;-40
2023/11/04 14:04:04;;;;;;;1.15;0.65;;;;;;;;;;5092622;28;20026;-40
2023/11/04 14:06:30;;;;;;;0.90;0.60;;;;;;;;;;5091569;28;20020;-40
2023/11/04 14:08:58;;;;;;;0.70;0.50;;;;;;;;;;5096432;28;20016;-42
2023/11/04 14:11:25;;;;;;;1.25;0.70;;;;;;;;;;5096704;28;20538;-40
2023/11/04 14:13:51;;;;;;;1.40;0.60;;;;;;;;;;5096742;28;20032;-37
2023/11/04 14:16:17;;;;;;;0.90;0.60;;;;;;;;;;5095434;28;20031;-37
2023/11/04 14:18:43;;;;;;;1.27;0.60;;;;;;;;;;5096234;28;20020;-44
2023/11/04 14:21:09;;;;;;;1.08;0.50;;;;;;;;;;5096321;28;20490;-40
2023/11/04 14:23:38;;;;;;;0.60;0.43;;;;;;;;;;5096036;28;20032;-38
2023/11/04 14:26:05;;;;;;;0.77;0.50;;;;;;;;;;5095039;28;20554;-42
2023/11/04 14:28:31;;;;;;;0.95;0.50;;;;;;;;;;5094981;28;20020;-40
2023/11/04 14:30:58;;;;;;;1.52;0.50;;;;;;;;;;5096033;28;20074;-37
2023/11/04 14:33:24;;;;;;;1.55;0.50;;;;;;;;;;5095115;28;20026;-40
2023/11/04 14:35:50;;;;;;;0.60;0.40;;;;;;;;;;5095550;28;20074;-42
2023/11/04 14:38:17;;;;;;;0.85;0.50;;;;;;;;;;5096073;28;20028;-38